createdAt,value
2022-12-08T00:01:12.744Z,98231.81
2022-12-08T00:03:39.767Z,98235.22
2022-12-08T00:06:25.901Z,98233.72
2022-12-08T00:09:11.151Z,98231.81
2022-12-08T00:11:39.130Z,98238.88
2022-12-08T00:14:05.884Z,98233.72
2022-12-08T00:16:33.000Z,98232.97
2022-12-08T00:18:59.814Z,98235.63
2022-12-08T00:21:26.852Z,98238.22
2022-12-08T00:23:55.373Z,98239.16
2022-12-08T00:26:22.444Z,98235.06
2022-12-08T00:28:49.191Z,98236.66
2022-12-08T00:31:16.285Z,98233.34
2022-12-08T00:33:43.050Z,98239.72
2022-12-08T00:36:13.279Z,98244.78
2022-12-08T00:38:40.224Z,98232.41
2022-12-08T00:41:08.785Z,98241.44
2022-12-08T00:43:35.519Z,98244.22
2022-12-08T00:46:02.678Z,98250.41
2022-12-08T00:48:29.445Z,98238.97
2022-12-08T00:50:56.514Z,98258.41
2022-12-08T00:53:23.292Z,98254.97
2022-12-08T00:55:50.300Z,98251.28
2022-12-08T00:58:17.019Z,98251.19
2022-12-08T01:00:44.251Z,98264.63
2022-12-08T01:03:11.647Z,98266.50
2022-12-08T01:05:39.082Z,98259.28
2022-12-08T01:08:06.731Z,98269.88
2022-12-08T01:10:37.475Z,98264.53
2022-12-08T01:13:04.319Z,98272.53
2022-12-08T01:15:31.394Z,98275.31
2022-12-08T01:17:58.147Z,98277.88
2022-12-08T01:20:25.209Z,98272.53
2022-12-08T01:22:51.948Z,98277.88
2022-12-08T01:25:19.102Z,98273.41
2022-12-08T01:27:45.806Z,98279.59
2022-12-08T01:30:13.339Z,98271.66
2022-12-08T01:32:40.091Z,98268.34
2022-12-08T01:35:07.426Z,98264.63
2022-12-08T01:37:34.140Z,98265.56
2022-12-08T01:40:01.666Z,98265.47
2022-12-08T01:42:30.036Z,98265.84
2022-12-08T01:45:02.737Z,98267.38
2022-12-08T01:47:36.542Z,98259.38
2022-12-08T01:50:05.194Z,98263.75
2022-12-08T01:53:09.168Z,98264.72
2022-12-08T01:55:57.553Z,98262.13
2022-12-08T01:58:32.618Z,98266.41
2022-12-08T02:00:59.599Z,98256.63
2022-12-08T02:03:38.769Z,98254.97
2022-12-08T02:06:06.147Z,98249.63
2022-12-08T02:08:33.020Z,98244.28
2022-12-08T02:11:00.094Z,98248.50
2022-12-08T02:13:26.886Z,98244.28
2022-12-08T02:16:00.077Z,98244.22
2022-12-08T02:18:42.011Z,98241.72
2022-12-08T02:21:09.467Z,98242.47
2022-12-08T02:23:48.371Z,98249.72
2022-12-08T02:26:51.798Z,98250.78
2022-12-08T02:29:33.859Z,98242.59
2022-12-08T02:32:19.526Z,98236.38
2022-12-08T02:35:15.234Z,98239.44
2022-12-08T02:37:59.284Z,98233.97
2022-12-08T02:40:32.493Z,98231.22
2022-12-08T02:43:02.623Z,98225.22
2022-12-08T02:45:35.025Z,98227.97
2022-12-08T02:48:02.098Z,98238.56
2022-12-08T02:50:29.008Z,98238.75
2022-12-08T02:52:56.054Z,98236.09
2022-12-08T02:56:15.569Z,98225.31
2022-12-08T02:59:24.133Z,98235.16
2022-12-08T03:02:14.631Z,98233.50
2022-12-08T03:04:41.730Z,98236.47
2022-12-08T03:07:22.156Z,98242.84
2022-12-08T03:09:52.807Z,98240.47
2022-12-08T03:12:39.958Z,98242.19
2022-12-08T03:15:12.521Z,98243.03
2022-12-08T03:17:39.496Z,98242.19
2022-12-08T03:20:09.760Z,98232.44
2022-12-08T03:22:36.472Z,98240.59
2022-12-08T03:25:03.718Z,98232.44
2022-12-08T03:27:30.532Z,98237.13
2022-12-08T03:29:58.385Z,98233.59
2022-12-08T03:32:51.773Z,98236.38
2022-12-08T03:35:22.767Z,98226.53
2022-12-08T03:37:49.472Z,98226.63
2022-12-08T03:40:18.729Z,98225.59
2022-12-08T03:42:45.500Z,98216.84
2022-12-08T03:45:12.576Z,98222.09
2022-12-08T03:47:39.345Z,98223.13
2022-12-08T03:50:07.073Z,98223.03
2022-12-08T03:52:34.022Z,98225.88
2022-12-08T03:55:01.029Z,98219.88
2022-12-08T03:57:27.748Z,98227.78
2022-12-08T03:59:54.737Z,98219.78
2022-12-08T04:02:21.553Z,98223.38
2022-12-08T04:04:48.871Z,98225.19
2022-12-08T04:07:15.552Z,98216.34
2022-12-08T04:09:42.695Z,98211.88
2022-12-08T04:12:09.481Z,98209.47
2022-12-08T04:14:36.535Z,98213.78
2022-12-08T04:17:03.375Z,98211.09
2022-12-08T04:19:30.510Z,98214.72
2022-12-08T04:21:57.301Z,98210.34
2022-12-08T04:24:24.308Z,98212.13
2022-12-08T04:26:51.091Z,98208.63
2022-12-08T04:29:18.284Z,98214.03
2022-12-08T04:31:45.117Z,98213.38
2022-12-08T04:34:12.303Z,98208.13
2022-12-08T04:36:39.024Z,98215.78
2022-12-08T04:39:06.099Z,98207.69
2022-12-08T04:41:33.071Z,98211.47
2022-12-08T04:44:00.084Z,98201.75
2022-12-08T04:46:26.984Z,98207.84
2022-12-08T04:48:54.052Z,98202.78
2022-12-08T04:51:21.225Z,98208.81
2022-12-08T04:53:48.307Z,98213.38
2022-12-08T04:56:15.760Z,98223.88
2022-12-08T04:58:43.119Z,98215.97
2022-12-08T05:01:09.920Z,98223.78
2022-12-08T05:03:37.035Z,98212.31
2022-12-08T05:06:03.978Z,98208.81
2022-12-08T05:08:31.339Z,98203.38
2022-12-08T05:11:05.240Z,98213.97
2022-12-08T05:13:32.404Z,98218.44
2022-12-08T05:16:04.224Z,98225.47
2022-12-08T05:18:31.428Z,98217.38
2022-12-08T05:20:58.156Z,98219.97
2022-12-08T05:23:25.310Z,98219.28
2022-12-08T05:25:52.050Z,98221.03
2022-12-08T05:28:40.791Z,98220.06
2022-12-08T05:31:05.986Z,98210.34
2022-12-08T05:33:33.058Z,98216.44
2022-12-08T05:35:59.767Z,98216.53
2022-12-08T05:38:26.826Z,98210.44
2022-12-08T05:40:53.522Z,98218.44
2022-12-08T05:43:20.781Z,98212.94
2022-12-08T05:45:47.586Z,98214.72
2022-12-08T05:48:14.658Z,98214.44
2022-12-08T05:50:48.522Z,98202.72
2022-12-08T05:53:16.578Z,98209.84
2022-12-08T05:55:43.431Z,98217.97
2022-12-08T05:58:12.790Z,98211.88
2022-12-08T06:00:39.858Z,98214.34
2022-12-08T06:03:06.956Z,98211.94
2022-12-08T06:05:34.654Z,98213.69
2022-12-08T06:08:02.006Z,98207.59
2022-12-08T06:10:28.954Z,98217.28
2022-12-08T06:12:55.988Z,98216.34
2022-12-08T06:15:22.743Z,98220.63
2022-12-08T06:17:49.752Z,98213.69
2022-12-08T06:20:16.542Z,98225.38
2022-12-08T06:22:43.603Z,98225.38
2022-12-08T06:25:10.510Z,98226.16
2022-12-08T06:27:37.598Z,98223.69
2022-12-08T06:30:04.832Z,98225.56
2022-12-08T06:32:32.040Z,98223.88
2022-12-08T06:34:58.822Z,98230.81
2022-12-08T06:37:25.814Z,98231.78
2022-12-08T06:39:52.588Z,98236.16
2022-12-08T06:42:38.250Z,98237.88
2022-12-08T06:45:05.490Z,98243.31
2022-12-08T06:47:32.505Z,98239.13
2022-12-08T06:49:59.240Z,98239.88
2022-12-08T06:52:26.285Z,98242.56
2022-12-08T06:54:53.002Z,98243.41
2022-12-08T06:57:20.045Z,98246.06
2022-12-08T06:59:46.814Z,98242.72
2022-12-08T07:02:13.924Z,98247.97
2022-12-08T07:04:40.724Z,98246.06
2022-12-08T07:07:07.776Z,98243.50
2022-12-08T07:09:34.665Z,98243.66
2022-12-08T07:12:01.692Z,98243.41
2022-12-08T07:14:28.592Z,98239.00
2022-12-08T07:16:55.693Z,98245.03
2022-12-08T07:19:22.536Z,98245.97
2022-12-08T07:21:49.514Z,98241.59
2022-12-08T07:24:16.262Z,98239.78
2022-12-08T07:26:43.338Z,98237.22
2022-12-08T07:29:10.814Z,98237.22
2022-12-08T07:31:37.853Z,98239.13
2022-12-08T07:34:04.597Z,98240.72
2022-12-08T07:36:32.799Z,98241.59
2022-12-08T07:38:59.552Z,98241.78
2022-12-08T07:41:26.654Z,98238.16
2022-12-08T07:43:53.908Z,98239.69
2022-12-08T07:46:22.041Z,98235.31
2022-12-08T07:48:48.892Z,98237.97
2022-12-08T07:51:16.084Z,98244.94
2022-12-08T07:53:47.213Z,98237.88
2022-12-08T07:56:17.154Z,98244.75
2022-12-08T07:58:45.926Z,98241.41
2022-12-08T08:01:23.436Z,98243.88
2022-12-08T08:03:50.409Z,98244.06
2022-12-08T08:06:17.445Z,98242.38
2022-12-08T08:08:44.197Z,98244.56
2022-12-08T08:11:18.913Z,98242.84
2022-12-08T08:13:47.905Z,98250.56
2022-12-08T08:16:15.072Z,98241.88
2022-12-08T08:18:41.948Z,98253.31
2022-12-08T08:21:43.074Z,98247.88
2022-12-08T08:23:57.863Z,98247.72
2022-12-08T08:26:24.902Z,98251.03
2022-12-08T08:28:51.660Z,98260.59
2022-12-08T08:31:18.723Z,98254.28
2022-12-08T08:33:45.639Z,98253.53
2022-12-08T08:36:12.851Z,98255.94
2022-12-08T08:38:40.122Z,98251.34
2022-12-08T08:41:09.133Z,98249.53
2022-12-08T08:43:38.549Z,98254.59
2022-12-08T08:46:06.494Z,98253.66
2022-12-08T08:48:33.460Z,98257.16
2022-12-08T08:51:07.257Z,98259.75
2022-12-08T08:53:34.006Z,98254.41
2022-12-08T08:56:02.907Z,98256.72
2022-12-08T08:58:29.855Z,98262.22
2022-12-08T09:00:56.852Z,98264.72
2022-12-08T09:03:23.601Z,98262.91
2022-12-08T09:05:50.792Z,98265.28
2022-12-08T09:08:17.730Z,98255.28
2022-12-08T09:10:44.905Z,98255.47
2022-12-08T09:13:11.679Z,98252.88
2022-12-08T09:15:38.848Z,98253.53
2022-12-08T09:18:06.836Z,98251.44
2022-12-08T09:20:34.777Z,98247.25
2022-12-08T09:23:01.691Z,98248.69
2022-12-08T09:25:28.962Z,98245.91
2022-12-08T09:27:55.771Z,98237.06
2022-12-08T09:30:22.954Z,98243.16
2022-12-08T09:32:49.781Z,98238.47
2022-12-08T09:35:16.819Z,98237.63
2022-12-08T09:37:43.559Z,98227.69
2022-12-08T09:40:11.976Z,98225.56
2022-12-08T09:42:44.820Z,98214.88
2022-12-08T09:45:12.616Z,98217.47
2022-12-08T09:48:03.284Z,98211.94
2022-12-08T09:50:45.719Z,98208.97
2022-12-08T09:53:14.106Z,98201.91
2022-12-08T09:55:49.894Z,98199.13
2022-12-08T09:58:47.575Z,98198.19
2022-12-08T10:01:14.733Z,98201.53
2022-12-08T10:03:41.483Z,98204.94
2022-12-08T10:06:40.811Z,98212.09
2022-12-08T10:09:25.279Z,98204.66
2022-12-08T10:12:04.586Z,98209.16
2022-12-08T10:14:41.286Z,98209.16
2022-12-08T10:17:18.210Z,98201.22
2022-12-08T10:19:45.645Z,98200.81
2022-12-08T10:22:22.211Z,98206.81
2022-12-08T10:25:04.542Z,98208.44
2022-12-08T10:27:32.758Z,98199.47
2022-12-08T10:29:59.488Z,98198.19
2022-12-08T10:32:29.466Z,98194.59
2022-12-08T10:35:07.104Z,98195.44
2022-12-08T10:37:34.439Z,98198.09
2022-12-08T10:40:16.340Z,98193.41
2022-12-08T10:42:47.610Z,98189.88
2022-12-08T10:45:23.205Z,98190.00
2022-12-08T10:47:56.706Z,98190.94
2022-12-08T10:50:31.402Z,98192.75
2022-12-08T10:53:48.013Z,98187.97
2022-12-08T10:56:15.574Z,98179.75
2022-12-08T10:58:46.413Z,98183.28
2022-12-08T11:01:13.866Z,98176.97
2022-12-08T11:03:45.302Z,98184.13
2022-12-08T11:06:15.310Z,98174.50
2022-12-08T11:08:50.863Z,98171.44
2022-12-08T11:11:17.645Z,98176.69
2022-12-08T11:13:44.721Z,98179.44
2022-12-08T11:16:13.422Z,98176.69
2022-12-08T11:18:42.292Z,98171.44
2022-12-08T11:21:13.594Z,98171.72
2022-12-08T11:23:41.429Z,98169.91
2022-12-08T11:26:30.006Z,98169.69
2022-12-08T11:28:57.182Z,98160.94
2022-12-08T11:31:26.942Z,98160.19
2022-12-08T11:33:54.171Z,98152.38
2022-12-08T11:36:21.709Z,98154.84
2022-12-08T11:38:49.317Z,98157.50
2022-12-08T11:41:21.226Z,98158.34
2022-12-08T11:43:56.038Z,98160.94
2022-12-08T11:46:32.419Z,98153.00
2022-12-08T11:49:06.237Z,98158.34
2022-12-08T11:51:56.880Z,98157.28
2022-12-08T11:54:30.208Z,98155.38
2022-12-08T11:56:58.520Z,98157.28
2022-12-08T11:59:39.584Z,98152.16
2022-12-08T12:02:06.476Z,98151.09
2022-12-08T12:04:37.460Z,98150.13
2022-12-08T12:07:13.252Z,98160.84
2022-12-08T12:10:34.048Z,98159.00
2022-12-08T12:13:31.661Z,98155.69
2022-12-08T12:16:01.496Z,98153.97
2022-12-08T12:18:46.433Z,98145.94
2022-12-08T12:21:26.013Z,98146.03
2022-12-08T12:24:28.418Z,98150.44
2022-12-08T12:27:08.069Z,98153.13
2022-12-08T12:29:36.088Z,98144.25
2022-12-08T12:32:07.941Z,98149.69
2022-12-08T12:34:39.125Z,98146.13
2022-12-08T12:37:14.729Z,98146.81
2022-12-08T12:40:01.921Z,98134.50
2022-12-08T12:42:46.037Z,98144.25
2022-12-08T12:45:25.563Z,98143.56
2022-12-08T12:47:56.933Z,98142.72
2022-12-08T12:50:38.845Z,98141.78
2022-12-08T12:53:12.308Z,98142.06
2022-12-08T12:55:46.557Z,98133.94
2022-12-08T12:58:32.518Z,98134.06
2022-12-08T13:01:12.721Z,98132.22
2022-12-08T13:03:45.639Z,98125.28
2022-12-08T13:06:14.878Z,98127.06
2022-12-08T13:08:50.235Z,98128.16
2022-12-08T13:11:16.951Z,98130.06
2022-12-08T13:13:56.912Z,98119.28
2022-12-08T13:16:27.397Z,98123.66
2022-12-08T13:19:03.925Z,98121.09
2022-12-08T13:21:36.059Z,98115.72
2022-12-08T13:24:30.701Z,98115.94
2022-12-08T13:27:03.524Z,98117.56
2022-12-08T13:29:34.343Z,98125.38
2022-12-08T13:32:07.131Z,98119.38
2022-12-08T13:34:50.019Z,98123.09
2022-12-08T13:37:31.246Z,98115.94
2022-12-08T13:40:01.576Z,98122.06
2022-12-08T13:42:36.318Z,98126.22
2022-12-08T13:49:03.372Z,98122.91
2022-12-08T13:57:11.446Z,98119.28
2022-12-08T13:59:43.279Z,98120.13
2022-12-08T14:02:19.008Z,98124.53
2022-12-08T14:05:16.821Z,98124.63
2022-12-08T14:07:34.394Z,98119.28
2022-12-08T14:10:03.672Z,98122.81
2022-12-08T14:12:30.750Z,98124.72
2022-12-08T14:15:04.369Z,98131.03
2022-12-08T14:17:32.522Z,98125.78
2022-12-08T14:20:02.272Z,98122.91
2022-12-08T14:22:36.496Z,98123.19
2022-12-08T14:25:04.292Z,98115.09
2022-12-08T14:27:35.942Z,98118.75
2022-12-08T14:30:16.251Z,98125.88
2022-12-08T14:32:45.163Z,98120.53
2022-12-08T14:35:19.682Z,98121.41
2022-12-08T14:37:51.652Z,98125.31
2022-12-08T14:40:22.799Z,98125.44
2022-12-08T14:42:53.078Z,98124.22
2022-12-08T14:45:20.030Z,98128.72
2022-12-08T14:47:48.561Z,98129.97
2022-12-08T14:50:38.746Z,98129.22
2022-12-08T14:53:14.448Z,98129.31
2022-12-08T14:55:41.157Z,98123.31
2022-12-08T14:58:22.162Z,98121.38
2022-12-08T15:00:49.354Z,98120.94
2022-12-08T15:03:19.329Z,98122.56
2022-12-08T15:05:46.051Z,98121.81
2022-12-08T15:08:13.155Z,98118.91
2022-12-08T15:10:40.038Z,98113.78
2022-12-08T15:13:09.966Z,98115.28
2022-12-08T15:15:52.836Z,98121.47
2022-12-08T15:18:19.972Z,98119.81
2022-12-08T15:20:53.860Z,98119.06
2022-12-08T15:23:32.504Z,98113.53
2022-12-08T15:25:59.264Z,98117.38
2022-12-08T15:28:30.004Z,98107.72
2022-12-08T15:30:57.739Z,98104.88
2022-12-08T15:33:25.022Z,98114.47
2022-12-08T15:35:51.817Z,98111.06
2022-12-08T15:38:24.938Z,98101.44
2022-12-08T15:40:52.666Z,98107.63
2022-12-08T15:43:20.074Z,98106.69
2022-12-08T15:45:57.846Z,98098.00
2022-12-08T15:48:28.077Z,98096.19
2022-12-08T15:50:54.981Z,98091.59
2022-12-08T15:53:22.216Z,98090.75
2022-12-08T15:56:18.442Z,98088.00
2022-12-08T16:01:23.113Z,98090.75
2022-12-08T16:09:36.396Z,98071.09
2022-12-08T16:12:21.873Z,98076.53
2022-12-08T16:17:36.242Z,98071.41
2022-12-08T16:20:05.137Z,98070.44
2022-12-08T16:25:21.336Z,98065.09
2022-12-08T16:28:23.305Z,98066.06
2022-12-08T16:30:42.551Z,98064.53
2022-12-08T16:33:10.480Z,98068.06
2022-12-08T16:35:37.580Z,98065.38
2022-12-08T16:38:04.637Z,98063.59
2022-12-08T16:40:31.769Z,98067.75
2022-12-08T16:42:58.548Z,98069.59
2022-12-08T16:45:27.977Z,98065.63
2022-12-08T16:47:59.061Z,98066.06
2022-12-08T16:50:27.067Z,98067.97
2022-12-08T16:53:12.470Z,98072.44
2022-12-08T16:55:39.478Z,98069.69
2022-12-08T16:58:06.265Z,98077.25
2022-12-08T17:00:37.121Z,98071.16
2022-12-08T17:03:10.761Z,98074.97
2022-12-08T17:05:39.750Z,98076.03
2022-12-08T17:08:06.631Z,98077.84
2022-12-08T17:10:38.520Z,98071.53
2022-12-08T17:13:05.271Z,98078.63
2022-12-08T17:15:32.347Z,98074.97
2022-12-08T17:17:59.132Z,98076.03
2022-12-08T17:20:27.824Z,98078.63
2022-12-08T17:22:58.199Z,98077.97
2022-12-08T17:25:28.307Z,98073.38
2022-12-08T17:27:56.335Z,98078.81
2022-12-08T17:30:23.533Z,98075.94
2022-12-08T17:32:50.315Z,98076.88
2022-12-08T17:35:17.448Z,98080.41
2022-12-08T17:37:44.212Z,98082.97
2022-12-08T17:40:11.582Z,98083.19
2022-12-08T17:42:38.778Z,98088.22
2022-12-08T17:45:07.290Z,98088.31
2022-12-08T17:47:34.354Z,98085.56
2022-12-08T17:50:01.820Z,98083.84
2022-12-08T17:52:28.595Z,98080.31
2022-12-08T17:54:55.784Z,98080.22
2022-12-08T17:57:22.559Z,98081.28
2022-12-08T17:59:49.678Z,98081.38
2022-12-08T18:02:16.515Z,98074.13
2022-12-08T18:04:43.633Z,98079.38
2022-12-08T18:07:10.426Z,98080.13
2022-12-08T18:09:37.608Z,98083.84
2022-12-08T18:12:04.622Z,98069.63
2022-12-08T18:14:31.847Z,98081.94
2022-12-08T18:16:58.748Z,98078.28
2022-12-08T18:19:26.345Z,98074.66
2022-12-08T18:21:53.091Z,98075.63
2022-12-08T18:24:22.226Z,98068.59
2022-12-08T18:26:49.408Z,98075.41
2022-12-08T18:29:16.476Z,98072.00
2022-12-08T18:31:43.248Z,98070.19
2022-12-08T18:34:10.270Z,98070.81
2022-12-08T18:36:37.042Z,98064.53
2022-12-08T18:39:08.905Z,98066.25
2022-12-08T18:41:37.657Z,98061.22
2022-12-08T18:44:04.748Z,98061.03
2022-12-08T18:46:31.608Z,98065.47
2022-12-08T18:48:59.492Z,98058.34
2022-12-08T18:51:26.362Z,98062.81
2022-12-08T18:53:53.411Z,98063.59
2022-12-08T18:56:30.683Z,98065.63
2022-12-08T18:59:03.283Z,98059.94
2022-12-08T19:01:32.106Z,98060.91
2022-12-08T19:04:27.400Z,98065.38
2022-12-08T19:06:51.678Z,98057.38
2022-12-08T19:09:18.801Z,98062.50
2022-12-08T19:11:45.588Z,98065.19
2022-12-08T19:14:12.704Z,98056.44
2022-12-08T19:16:39.439Z,98060.91
2022-12-08T19:19:06.627Z,98058.16
2022-12-08T19:21:33.447Z,98057.19
2022-12-08T19:24:00.536Z,98063.41
2022-12-08T19:26:27.957Z,98063.41
2022-12-08T19:28:55.032Z,98060.72
2022-12-08T19:31:21.926Z,98051.09
2022-12-08T19:33:49.115Z,98056.31
2022-12-08T19:36:17.967Z,98054.59
2022-12-08T19:39:03.953Z,98054.59
2022-12-08T19:41:49.336Z,98055.56
2022-12-08T19:44:36.153Z,98058.91
2022-12-08T19:47:03.680Z,98063.50
2022-12-08T19:49:30.906Z,98059.34
2022-12-08T19:51:57.899Z,98060.41
2022-12-08T19:54:24.906Z,98065.75
2022-12-08T19:56:51.662Z,98057.72
2022-12-08T19:59:19.282Z,98052.47
2022-12-08T20:01:48.105Z,98044.69
2022-12-08T20:04:15.505Z,98054.50
2022-12-08T20:06:42.773Z,98053.25
2022-12-08T20:09:10.527Z,98048.88
2022-12-08T20:11:37.910Z,98054.09
2022-12-08T20:14:05.167Z,98051.53
2022-12-08T20:16:32.150Z,98054.31
2022-12-08T20:18:59.614Z,98055.94
2022-12-08T20:21:26.478Z,98055.06
2022-12-08T20:23:53.696Z,98053.34
2022-12-08T20:26:21.420Z,98054.31
2022-12-08T20:28:48.750Z,98055.25
2022-12-08T20:31:19.849Z,98059.53
2022-12-08T20:33:47.092Z,98048.88
2022-12-08T20:36:17.526Z,98058.69
2022-12-08T20:38:45.776Z,98048.88
2022-12-08T20:41:12.759Z,98056.88
2022-12-08T20:43:39.801Z,98053.47
2022-12-08T20:46:07.517Z,98057.81
2022-12-08T20:48:34.838Z,98049.81
2022-12-08T20:51:01.803Z,98060.19
2022-12-08T20:53:29.005Z,98054.84
2022-12-08T20:55:55.927Z,98057.53
2022-12-08T20:58:23.216Z,98056.69
2022-12-08T21:00:50.203Z,98054.84
2022-12-08T21:03:18.679Z,98055.84
2022-12-08T21:05:52.481Z,98059.44
2022-12-08T21:08:19.919Z,98059.16
2022-12-08T21:10:53.463Z,98052.19
2022-12-08T21:13:20.912Z,98052.38
2022-12-08T21:15:47.908Z,98053.25
2022-12-08T21:18:16.229Z,98054.75
2022-12-08T21:20:43.432Z,98051.22
2022-12-08T21:23:10.759Z,98052.06
2022-12-08T21:25:41.930Z,98053.91
2022-12-08T21:28:09.294Z,98049.59
2022-12-08T21:30:36.054Z,98056.69
2022-12-08T21:33:03.337Z,98055.94
2022-12-08T21:35:30.318Z,98062.03
2022-12-08T21:37:57.557Z,98050.34
2022-12-08T21:40:24.468Z,98057.63
2022-12-08T21:42:51.520Z,98055.16
2022-12-08T21:45:19.435Z,98051.34
2022-12-08T21:47:47.264Z,98054.84
2022-12-08T21:50:14.329Z,98052.28
2022-12-08T21:52:42.811Z,98048.56
2022-12-08T21:55:10.504Z,98060.94
2022-12-08T21:57:37.715Z,98049.50
2022-12-08T22:00:06.773Z,98049.41
2022-12-08T22:02:34.193Z,98048.66
2022-12-08T22:05:01.234Z,98048.66
2022-12-08T22:07:28.410Z,98049.41
2022-12-08T22:09:55.412Z,98044.06
2022-12-08T22:12:22.974Z,98043.22
2022-12-08T22:14:51.034Z,98043.13
2022-12-08T22:17:18.714Z,98033.28
2022-12-08T22:19:46.044Z,98039.56
2022-12-08T22:22:13.264Z,98039.81
2022-12-08T22:24:40.141Z,98036.91
2022-12-08T22:27:07.542Z,98035.31
2022-12-08T22:29:34.373Z,98034.13
2022-12-08T22:32:01.626Z,98046.63
2022-12-08T22:34:28.451Z,98043.22
2022-12-08T22:36:55.486Z,98054.75
2022-12-08T22:39:22.385Z,98052.28
2022-12-08T22:41:49.431Z,98050.34
2022-12-08T22:44:16.488Z,98045.88
2022-12-08T22:46:43.653Z,98049.31
2022-12-08T22:49:10.582Z,98048.56
2022-12-08T22:51:37.835Z,98054.94
2022-12-08T22:54:05.600Z,98053.59
2022-12-08T22:56:32.711Z,98050.16
2022-12-08T22:58:59.542Z,98050.16
2022-12-08T23:01:31.207Z,98049.50
2022-12-08T23:03:58.707Z,98044.91
2022-12-08T23:06:26.431Z,98042.34
2022-12-08T23:08:53.565Z,98039.38
2022-12-08T23:11:21.003Z,98027.84
2022-12-08T23:13:48.222Z,98028.69
2022-12-08T23:16:15.630Z,98022.09
2022-12-08T23:19:20.497Z,98014.06
2022-12-08T23:21:47.612Z,98011.50
2022-12-08T23:24:14.574Z,98010.22
2022-12-08T23:26:43.325Z,98007.53
2022-12-08T23:31:54.819Z,98007.34
2022-12-08T23:34:21.868Z,98012.69
2022-12-08T23:36:49.081Z,98007.53
2022-12-08T23:39:16.048Z,98007.84
2022-12-08T23:41:43.214Z,98008.63
2022-12-08T23:44:12.351Z,98014.56
2022-12-08T23:46:39.817Z,98006.66
2022-12-08T23:49:06.733Z,98007.75
2022-12-08T23:51:33.855Z,98013.81
2022-12-08T23:54:00.798Z,98006.84
2022-12-08T23:56:30.504Z,98001.41
2022-12-08T23:58:57.676Z,98000.78
